createdAt,value
2023-11-04T00:01:47.449Z,59.87
2023-11-04T00:04:15.268Z,59.67
2023-11-04T00:06:42.786Z,60.03
2023-11-04T00:09:17.098Z,60.06
2023-11-04T00:11:47.015Z,60.06
2023-11-04T00:14:14.811Z,60.16
2023-11-04T00:16:42.237Z,60.20
2023-11-04T00:19:10.040Z,60.56
2023-11-04T00:21:42.871Z,60.41
2023-11-04T00:24:11.378Z,60.46
2023-11-04T00:26:39.242Z,60.54
2023-11-04T00:29:06.802Z,59.88
2023-11-04T00:31:37.266Z,60.51
2023-11-04T00:34:24.938Z,60.61
2023-11-04T00:37:12.581Z,60.86
2023-11-04T00:40:02.234Z,60.86
2023-11-04T00:42:49.922Z,61.10
2023-11-04T00:45:37.324Z,60.62
2023-11-04T00:48:24.982Z,60.67
2023-11-04T00:51:12.853Z,60.63
2023-11-04T00:54:00.741Z,60.97
2023-11-04T00:56:48.405Z,60.80
2023-11-04T00:59:35.983Z,60.96
2023-11-04T01:02:23.275Z,60.98
2023-11-04T01:05:12.348Z,60.82
2023-11-04T01:08:00.357Z,60.90
2023-11-04T01:10:48.605Z,61.01
2023-11-04T01:13:36.276Z,61.27
2023-11-04T01:16:23.892Z,61.10
2023-11-04T01:19:11.209Z,60.90
2023-11-04T01:21:59.268Z,61.06
2023-11-04T01:24:46.546Z,61.08
2023-11-04T01:27:34.306Z,60.94
2023-11-04T01:30:21.729Z,60.80
2023-11-04T01:33:10.321Z,60.99
2023-11-04T01:35:58.332Z,61.03
2023-11-04T01:38:45.944Z,60.97
2023-11-04T01:41:33.233Z,60.99
2023-11-04T01:44:20.950Z,61.47
2023-11-04T01:47:08.311Z,61.43
2023-11-04T01:49:55.896Z,61.41
2023-11-04T01:52:44.251Z,61.47
2023-11-04T01:55:31.938Z,61.37
2023-11-04T01:58:19.536Z,61.91
2023-11-04T02:01:07.624Z,61.60
2023-11-04T02:03:55.409Z,61.62
2023-11-04T02:06:44.675Z,61.79
2023-11-04T02:09:32.367Z,61.52
2023-11-04T02:12:21.781Z,61.20
2023-11-04T02:15:16.220Z,61.53
2023-11-04T02:18:04.664Z,61.20
2023-11-04T02:20:53.925Z,61.23
2023-11-04T02:23:41.222Z,61.50
2023-11-04T02:26:29.136Z,61.66
2023-11-04T02:29:16.430Z,61.38
2023-11-04T02:32:04.242Z,61.31
2023-11-04T02:34:51.566Z,61.20
2023-11-04T02:37:39.123Z,61.23
2023-11-04T02:40:26.396Z,61.31
2023-11-04T02:43:14.151Z,61.08
2023-11-04T02:46:01.461Z,61.50
2023-11-04T02:48:49.572Z,61.67
2023-11-04T02:51:36.914Z,61.17
2023-11-04T02:54:24.617Z,61.31
2023-11-04T02:57:13.134Z,61.50
2023-11-04T03:00:00.729Z,61.52
2023-11-04T03:02:48.070Z,61.44
2023-11-04T03:05:37.949Z,61.56
2023-11-04T03:08:27.223Z,61.53
2023-11-04T03:11:14.925Z,61.59
2023-11-04T03:14:02.734Z,61.65
2023-11-04T03:16:52.778Z,61.76
2023-11-04T03:19:40.441Z,61.56
2023-11-04T03:22:28.046Z,61.79
2023-11-04T03:25:16.577Z,61.78
2023-11-04T03:28:04.515Z,61.23
2023-11-04T03:30:51.859Z,61.77
2023-11-04T03:33:39.820Z,61.52
2023-11-04T03:36:27.284Z,61.46
2023-11-04T03:39:15.146Z,61.50
2023-11-04T03:42:02.608Z,61.38
2023-11-04T03:44:50.116Z,61.13
2023-11-04T03:47:37.526Z,61.16
2023-11-04T03:50:25.154Z,61.57
2023-11-04T03:53:12.446Z,61.00
2023-11-04T03:56:00.096Z,61.18
2023-11-04T03:58:47.631Z,61.18
2023-11-04T04:01:41.781Z,61.16
2023-11-04T04:04:29.523Z,61.25
2023-11-04T04:07:16.885Z,61.39
2023-11-04T04:10:04.674Z,60.80
2023-11-04T04:12:53.087Z,61.14
2023-11-04T04:15:40.882Z,61.23
2023-11-04T04:18:28.369Z,60.74
2023-11-04T04:21:16.722Z,60.42
2023-11-04T04:24:04.391Z,60.91
2023-11-04T04:26:52.047Z,61.66
2023-11-04T04:29:39.363Z,62.21
2023-11-04T04:32:27.003Z,62.33
2023-11-04T04:35:14.563Z,62.11
2023-11-04T04:38:02.142Z,61.86
2023-11-04T04:40:49.405Z,61.90
2023-11-04T04:43:37.875Z,62.44
2023-11-04T04:46:25.215Z,61.49
2023-11-04T04:49:13.071Z,62.00
2023-11-04T04:52:00.491Z,62.15
2023-11-04T04:54:48.130Z,62.17
2023-11-04T04:57:36.825Z,62.13
2023-11-04T05:00:24.607Z,61.93
2023-11-04T05:03:13.212Z,61.77
2023-11-04T05:06:00.992Z,61.67
2023-11-04T05:08:48.293Z,61.51
2023-11-04T05:11:35.885Z,61.36
2023-11-04T05:14:23.555Z,61.29
2023-11-04T05:17:11.127Z,61.15
2023-11-04T05:19:58.419Z,61.38
2023-11-04T05:22:45.987Z,61.01
2023-11-04T05:25:35.996Z,61.25
2023-11-04T05:28:25.520Z,60.96
2023-11-04T05:31:13.051Z,61.08
2023-11-04T05:34:00.710Z,61.14
2023-11-04T05:36:48.027Z,61.20
2023-11-04T05:39:35.754Z,61.40
2023-11-04T05:42:24.601Z,61.51
2023-11-04T05:45:12.545Z,61.45
2023-11-04T05:48:00.030Z,61.19
2023-11-04T05:50:48.130Z,60.96
2023-11-04T05:53:35.586Z,61.26
2023-11-04T05:56:23.256Z,61.38
2023-11-04T05:59:10.532Z,61.18
2023-11-04T06:01:58.242Z,61.20
2023-11-04T06:04:45.907Z,61.44
2023-11-04T06:07:33.936Z,61.29
2023-11-04T06:10:22.776Z,61.23
2023-11-04T06:13:10.130Z,61.26
2023-11-04T06:15:57.789Z,61.24
2023-11-04T06:18:46.546Z,61.01
2023-11-04T06:21:34.725Z,60.86
2023-11-04T06:24:22.040Z,60.71
2023-11-04T06:27:09.599Z,60.11
2023-11-04T06:29:56.878Z,60.17
2023-11-04T06:32:44.511Z,60.04
2023-11-04T06:35:34.580Z,60.62
2023-11-04T06:38:22.146Z,61.41
2023-11-04T06:41:17.925Z,61.71
2023-11-04T06:44:05.917Z,61.79
2023-11-04T06:46:56.085Z,61.28
2023-11-04T06:49:43.729Z,61.35
2023-11-04T06:52:31.290Z,61.30
2023-11-04T06:54:59.162Z,61.07
2023-11-04T06:57:26.644Z,60.96
2023-11-04T06:59:54.341Z,60.79
2023-11-04T07:02:22.338Z,60.74
2023-11-04T07:04:50.500Z,60.86
2023-11-04T07:07:17.974Z,61.25
2023-11-04T07:09:46.258Z,60.96
2023-11-04T07:12:13.675Z,60.30
2023-11-04T07:14:41.089Z,60.56
2023-11-04T07:17:08.743Z,60.95
2023-11-04T07:19:36.194Z,61.08
2023-11-04T07:22:03.689Z,60.66
2023-11-04T07:24:31.391Z,59.73
2023-11-04T07:26:58.762Z,59.50
2023-11-04T07:29:26.342Z,58.34
2023-11-04T07:31:54.247Z,58.39
2023-11-04T07:34:21.982Z,58.05
2023-11-04T07:36:49.566Z,58.10
2023-11-04T07:39:17.363Z,58.05
2023-11-04T07:41:45.026Z,58.64
2023-11-04T07:44:12.658Z,58.81
2023-11-04T07:46:41.268Z,58.59
2023-11-04T07:49:08.672Z,58.76
2023-11-04T07:51:36.164Z,59.20
2023-11-04T07:54:06.176Z,59.20
2023-11-04T07:56:33.563Z,59.63
2023-11-04T07:59:00.995Z,60.07
2023-11-04T08:01:28.736Z,58.78
2023-11-04T08:03:56.688Z,58.25
2023-11-04T08:06:24.390Z,58.40
2023-11-04T08:08:52.135Z,58.50
2023-11-04T08:11:19.899Z,58.42
2023-11-04T08:13:47.305Z,58.35
2023-11-04T08:16:14.778Z,57.87
2023-11-04T08:18:43.020Z,56.80
2023-11-04T08:21:10.536Z,57.34
2023-11-04T08:23:38.006Z,57.01
2023-11-04T08:26:05.921Z,58.04
2023-11-04T08:28:33.830Z,58.93
2023-11-04T08:31:02.023Z,57.95
2023-11-04T08:33:29.797Z,57.06
2023-11-04T08:35:57.652Z,57.00
2023-11-04T08:38:25.182Z,57.16
2023-11-04T08:40:53.409Z,56.19
2023-11-04T08:43:20.817Z,56.45
2023-11-04T08:45:48.749Z,56.46
2023-11-04T08:48:17.208Z,56.58
2023-11-04T08:50:44.700Z,55.47
2023-11-04T08:53:12.122Z,55.21
2023-11-04T08:55:39.863Z,54.83
2023-11-04T08:58:07.326Z,59.35
2023-11-04T09:00:35.306Z,55.64
2023-11-04T09:03:03.125Z,53.98
2023-11-04T09:05:33.837Z,53.20
2023-11-04T09:08:02.476Z,53.89
2023-11-04T09:10:30.227Z,54.19
2023-11-04T09:12:58.285Z,53.91
2023-11-04T09:15:26.076Z,53.69
2023-11-04T09:17:53.931Z,54.05
2023-11-04T09:20:21.424Z,53.87
2023-11-04T09:22:49.614Z,53.03
2023-11-04T09:25:17.314Z,52.67
2023-11-04T09:27:44.721Z,53.23
2023-11-04T09:30:12.760Z,52.53
2023-11-04T09:32:43.236Z,49.81
2023-11-04T09:35:13.943Z,50.22
2023-11-04T09:37:45.331Z,49.81
2023-11-04T09:40:16.043Z,50.49
2023-11-04T09:42:45.376Z,50.23
2023-11-04T09:45:13.007Z,50.44
2023-11-04T09:47:40.599Z,49.85
2023-11-04T09:50:09.179Z,49.87
2023-11-04T09:52:38.386Z,49.50
2023-11-04T09:55:07.076Z,48.29
2023-11-04T09:57:35.932Z,48.51
2023-11-04T10:00:04.709Z,48.74
2023-11-04T10:02:39.971Z,48.05
2023-11-04T10:05:09.069Z,48.29
2023-11-04T10:07:37.346Z,47.72
2023-11-04T10:10:16.454Z,47.66
2023-11-04T10:12:49.914Z,48.29
2023-11-04T10:15:17.348Z,47.61
2023-11-04T10:17:44.724Z,47.41
2023-11-04T10:20:13.497Z,47.55
2023-11-04T10:22:40.942Z,47.60
2023-11-04T10:25:08.754Z,47.55
2023-11-04T10:27:40.239Z,47.26
2023-11-04T10:30:08.729Z,48.31
2023-11-04T10:32:37.738Z,47.84
2023-11-04T10:35:11.796Z,47.88
2023-11-04T10:37:40.826Z,45.46
2023-11-04T10:40:09.308Z,43.81
2023-11-04T10:42:41.306Z,44.38
2023-11-04T10:45:12.123Z,44.32
2023-11-04T10:47:58.127Z,44.57
2023-11-04T10:50:43.087Z,43.97
2023-11-04T10:53:39.216Z,44.05
2023-11-04T10:56:08.281Z,44.29
2023-11-04T10:58:42.052Z,43.89
2023-11-04T11:01:10.353Z,44.03
2023-11-04T11:03:38.766Z,44.18
2023-11-04T11:06:06.712Z,51.23
2023-11-04T11:08:34.398Z,47.94
2023-11-04T11:11:15.137Z,45.82
2023-11-04T11:13:43.057Z,45.49
2023-11-04T11:16:11.107Z,44.53
2023-11-04T11:18:39.822Z,42.90
2023-11-04T11:21:11.594Z,43.93
2023-11-04T11:23:39.698Z,45.10
2023-11-04T11:26:14.928Z,45.08
2023-11-04T11:28:43.293Z,45.99
2023-11-04T11:31:14.728Z,46.97
2023-11-04T11:33:43.769Z,46.10
2023-11-04T11:36:15.325Z,44.90
2023-11-04T11:38:46.792Z,44.70
2023-11-04T11:41:16.245Z,43.56
2023-11-04T11:43:44.899Z,43.25
2023-11-04T11:46:12.723Z,43.67
2023-11-04T11:48:41.813Z,43.22
2023-11-04T11:51:12.607Z,43.74
2023-11-04T11:53:45.480Z,44.56
2023-11-04T11:56:13.709Z,45.03
2023-11-04T11:58:41.354Z,44.80
2023-11-04T12:01:09.701Z,44.19
2023-11-04T12:03:38.115Z,44.33
2023-11-04T12:06:06.410Z,45.14
2023-11-04T12:08:34.621Z,43.17
2023-11-04T12:11:02.305Z,44.00
2023-11-04T12:13:29.858Z,43.84
2023-11-04T12:15:57.511Z,43.22
2023-11-04T12:18:27.453Z,44.85
2023-11-04T12:20:54.976Z,44.85
2023-11-04T12:23:28.139Z,44.47
2023-11-04T12:25:57.472Z,44.10
2023-11-04T12:28:26.730Z,43.86
2023-11-04T12:31:04.674Z,44.89
2023-11-04T12:36:07.612Z,43.99
2023-11-04T12:38:43.130Z,44.89
2023-11-04T12:41:13.165Z,44.92
2023-11-04T12:43:43.335Z,45.33
2023-11-04T12:46:12.209Z,45.09
2023-11-04T12:48:39.957Z,44.81
2023-11-04T12:51:09.697Z,44.78
2023-11-04T12:53:38.438Z,44.91
2023-11-04T12:56:06.434Z,44.99
2023-11-04T12:58:34.092Z,45.42
2023-11-04T13:01:01.587Z,44.96
2023-11-04T13:03:29.248Z,45.83
2023-11-04T13:05:57.012Z,45.69
2023-11-04T13:08:24.525Z,45.85
2023-11-04T13:10:53.686Z,46.01
2023-11-04T13:13:21.459Z,45.51
2023-11-04T13:15:49.947Z,45.68
2023-11-04T13:18:18.503Z,45.27
2023-11-04T13:20:46.334Z,45.80
2023-11-04T13:23:16.207Z,45.79
2023-11-04T13:25:45.059Z,47.76
2023-11-04T13:28:12.893Z,47.38
2023-11-04T13:30:40.479Z,46.37
2023-11-04T13:33:09.128Z,45.75
2023-11-04T13:35:37.220Z,44.74
2023-11-04T13:38:04.673Z,44.41
2023-11-04T13:40:32.121Z,42.95
2023-11-04T13:43:00.378Z,43.06
2023-11-04T13:45:27.786Z,44.31
2023-11-04T13:47:55.224Z,44.11
2023-11-04T13:50:23.685Z,43.82
2023-11-04T13:52:51.413Z,43.96
2023-11-04T13:55:18.983Z,44.77
2023-11-04T13:57:47.020Z,44.24
2023-11-04T14:00:14.720Z,43.52
2023-11-04T14:02:43.200Z,42.62
2023-11-04T14:05:11.019Z,42.95
2023-11-04T14:07:38.501Z,43.18
2023-11-04T14:10:08.562Z,43.44
2023-11-04T14:12:36.353Z,43.73
2023-11-04T14:15:04.367Z,44.56
2023-11-04T14:17:32.324Z,44.15
2023-11-04T14:20:00.417Z,44.06
2023-11-04T14:22:27.918Z,44.17
2023-11-04T14:24:55.786Z,44.08
2023-11-04T14:27:23.219Z,44.58
2023-11-04T14:29:50.618Z,44.35
2023-11-04T14:32:18.320Z,44.75
2023-11-04T14:34:49.898Z,45.11
2023-11-04T14:37:17.908Z,45.76
2023-11-04T14:39:45.652Z,46.22
2023-11-04T14:42:14.734Z,46.06
2023-11-04T14:44:42.495Z,46.28
2023-11-04T14:47:09.921Z,46.26
2023-11-04T14:49:37.431Z,47.06
2023-11-04T14:52:05.584Z,46.79
2023-11-04T14:54:33.037Z,47.12
2023-11-04T14:57:03.582Z,47.93
2023-11-04T14:59:31.510Z,48.19
2023-11-04T15:01:58.934Z,48.30
2023-11-04T15:04:26.552Z,48.38
2023-11-04T15:06:54.274Z,48.62
2023-11-04T15:09:21.850Z,48.65
2023-11-04T15:11:49.449Z,48.76
2023-11-04T15:14:17.929Z,49.12
2023-11-04T15:16:45.566Z,49.35
2023-11-04T15:19:13.200Z,49.88
2023-11-04T15:21:40.999Z,49.92
2023-11-04T15:24:09.185Z,49.92
2023-11-04T15:26:37.017Z,50.19
2023-11-04T15:29:04.818Z,50.41
2023-11-04T15:31:32.221Z,50.64
2023-11-04T15:34:00.006Z,50.73
2023-11-04T15:36:27.873Z,51.08
2023-11-04T15:38:56.654Z,51.02
2023-11-04T15:41:24.146Z,51.10
2023-11-04T15:43:51.960Z,51.40
2023-11-04T15:46:19.448Z,51.49
2023-11-04T15:48:46.934Z,51.62
2023-11-04T15:51:14.662Z,51.89
2023-11-04T15:53:42.087Z,51.97
2023-11-04T15:56:09.576Z,52.12
2023-11-04T15:58:37.271Z,52.16
2023-11-04T16:01:05.082Z,52.30
2023-11-04T16:03:32.858Z,52.44
2023-11-04T16:06:00.617Z,52.71
2023-11-04T16:08:27.995Z,52.81
2023-11-04T16:10:55.996Z,52.96
2023-11-04T16:13:23.719Z,53.02
2023-11-04T16:15:51.433Z,53.21
2023-11-04T16:18:19.762Z,53.36
2023-11-04T16:20:47.162Z,53.39
2023-11-04T16:23:14.673Z,53.39
2023-11-04T16:25:42.353Z,53.37
2023-11-04T16:28:09.780Z,53.61
2023-11-04T16:30:37.352Z,53.80
2023-11-04T16:33:05.225Z,53.89
2023-11-04T16:35:32.726Z,54.01
2023-11-04T16:38:03.520Z,53.99
2023-11-04T16:40:31.223Z,53.97
2023-11-04T16:42:58.625Z,53.97
2023-11-04T16:45:28.055Z,54.24
2023-11-04T16:47:55.855Z,54.31
2023-11-04T16:50:23.440Z,54.40
2023-11-04T16:52:50.925Z,54.44
2023-11-04T16:55:19.049Z,54.71
2023-11-04T16:57:46.506Z,54.62
2023-11-04T17:00:15.014Z,54.68
2023-11-04T17:02:42.975Z,54.80
2023-11-04T17:05:10.666Z,55.06
2023-11-04T17:07:40.278Z,55.02
2023-11-04T17:10:09.018Z,55.17
2023-11-04T17:12:36.589Z,55.31
2023-11-04T17:15:06.334Z,55.45
2023-11-04T17:17:34.500Z,55.58
2023-11-04T17:20:01.928Z,55.88
2023-11-04T17:22:29.405Z,55.73
2023-11-04T17:24:57.145Z,55.53
2023-11-04T17:27:24.583Z,55.44
2023-11-04T17:29:52.703Z,55.67
2023-11-04T17:32:20.976Z,55.84
2023-11-04T17:34:48.454Z,55.86
2023-11-04T17:37:15.900Z,56.12
2023-11-04T17:39:43.618Z,56.05
2023-11-04T17:42:11.778Z,56.04
2023-11-04T17:44:40.198Z,55.87
2023-11-04T17:47:08.066Z,55.84
2023-11-04T17:49:40.930Z,56.06
2023-11-04T17:52:08.726Z,56.11
2023-11-04T17:54:36.769Z,56.25
2023-11-04T17:57:06.922Z,56.44
2023-11-04T17:59:35.067Z,56.39
2023-11-04T18:02:03.424Z,56.43
2023-11-04T18:04:31.296Z,56.47
2023-11-04T18:06:59.120Z,56.66
2023-11-04T18:09:26.546Z,56.64
2023-11-04T18:11:55.240Z,56.93
2023-11-04T18:14:22.743Z,56.85
2023-11-04T18:16:50.389Z,57.00
2023-11-04T18:19:18.411Z,57.17
2023-11-04T18:21:48.724Z,57.15
2023-11-04T18:24:18.925Z,56.69
2023-11-04T18:26:46.672Z,57.16
2023-11-04T18:29:14.378Z,57.71
2023-11-04T18:31:41.863Z,57.59
2023-11-04T18:34:09.628Z,58.11
2023-11-04T18:36:37.685Z,58.13
2023-11-04T18:39:05.173Z,58.01
2023-11-04T18:41:32.915Z,59.00
2023-11-04T18:44:00.537Z,59.16
2023-11-04T18:46:29.090Z,59.31
2023-11-04T18:48:57.984Z,59.40
2023-11-04T18:51:27.443Z,58.82
2023-11-04T18:53:54.950Z,59.04
2023-11-04T18:56:22.717Z,58.92
2023-11-04T18:58:50.162Z,59.08
2023-11-04T19:01:22.320Z,59.36
2023-11-04T19:03:50.561Z,59.20
2023-11-04T19:06:19.402Z,58.87
2023-11-04T19:08:47.444Z,59.19
2023-11-04T19:11:15.162Z,58.91
2023-11-04T19:13:42.715Z,58.73
2023-11-04T19:16:10.465Z,58.63
2023-11-04T19:18:39.099Z,58.48
2023-11-04T19:21:10.539Z,58.46
2023-11-04T19:23:38.615Z,58.52
2023-11-04T19:26:06.577Z,58.66
2023-11-04T19:28:33.945Z,58.50
2023-11-04T19:31:01.740Z,58.35
2023-11-04T19:33:31.172Z,58.34
2023-11-04T19:35:59.305Z,58.49
2023-11-04T19:38:27.006Z,58.76
2023-11-04T19:40:54.526Z,59.04
2023-11-04T19:43:22.095Z,58.78
2023-11-04T19:45:49.862Z,58.91
2023-11-04T19:48:17.324Z,58.62
2023-11-04T19:50:45.236Z,58.58
2023-11-04T19:53:12.990Z,58.24
2023-11-04T19:55:40.465Z,58.26
2023-11-04T19:58:08.220Z,58.29
2023-11-04T20:00:36.076Z,58.48
2023-11-04T20:03:04.850Z,58.20
2023-11-04T20:05:32.460Z,58.17
2023-11-04T20:07:59.951Z,58.01
2023-11-04T20:10:27.843Z,57.83
2023-11-04T20:12:58.406Z,57.99
2023-11-04T20:15:28.409Z,57.98
2023-11-04T20:17:56.221Z,57.81
2023-11-04T20:20:23.694Z,57.84
2023-11-04T20:22:51.803Z,57.80
2023-11-04T20:25:21.681Z,57.84
2023-11-04T20:27:49.401Z,57.72
2023-11-04T20:30:16.787Z,57.91
2023-11-04T20:32:44.523Z,58.17
2023-11-04T20:35:12.215Z,58.07
2023-11-04T20:37:42.041Z,58.05
2023-11-04T20:40:11.931Z,57.84
2023-11-04T20:42:39.995Z,57.83
2023-11-04T20:45:08.140Z,57.86
2023-11-04T20:47:36.011Z,57.90
2023-11-04T20:50:06.680Z,57.80
2023-11-04T20:52:37.127Z,57.86
2023-11-04T20:55:05.010Z,57.76
2023-11-04T20:57:33.058Z,57.68
2023-11-04T21:00:00.750Z,57.67
2023-11-04T21:02:28.269Z,57.76
2023-11-04T21:04:55.962Z,57.92
2023-11-04T21:07:23.992Z,58.10
2023-11-04T21:09:51.797Z,57.94
2023-11-04T21:12:19.266Z,57.88
2023-11-04T21:14:46.959Z,58.39
2023-11-04T21:17:14.604Z,58.63
2023-11-04T21:19:42.032Z,58.55
2023-11-04T21:22:10.220Z,58.85
2023-11-04T21:24:38.017Z,58.95
2023-11-04T21:27:05.791Z,58.88
2023-11-04T21:29:33.466Z,58.85
2023-11-04T21:32:01.111Z,58.57
2023-11-04T21:34:29.724Z,58.46
2023-11-04T21:36:58.322Z,58.65
2023-11-04T21:39:28.423Z,58.90
2023-11-04T21:41:57.840Z,59.23
2023-11-04T21:44:25.718Z,59.47
2023-11-04T21:46:53.151Z,59.69
2023-11-04T21:49:20.638Z,59.73
2023-11-04T21:51:48.399Z,59.54
2023-11-04T21:54:17.503Z,59.62
2023-11-04T21:56:45.101Z,59.82
2023-11-04T21:59:12.873Z,59.79
2023-11-04T22:01:40.591Z,59.62
2023-11-04T22:04:08.630Z,63.20
2023-11-04T22:06:37.462Z,60.97
2023-11-04T22:09:07.778Z,60.22
2023-11-04T22:11:35.485Z,59.93
2023-11-04T22:14:04.843Z,63.58
2023-11-04T22:16:32.332Z,62.69
2023-11-04T22:19:00.120Z,61.97
2023-11-04T22:21:28.997Z,59.00
2023-11-04T22:23:56.419Z,55.86
2023-11-04T22:26:24.141Z,55.50
2023-11-04T22:28:51.560Z,55.71
2023-11-04T22:31:19.004Z,55.99
2023-11-04T22:33:49.045Z,56.43
2023-11-04T22:36:16.486Z,56.65
2023-11-04T22:38:43.955Z,56.83
2023-11-04T22:41:11.668Z,57.10
2023-11-04T22:43:39.414Z,57.44
2023-11-04T22:46:06.938Z,57.82
2023-11-04T22:48:34.811Z,57.99
2023-11-04T22:51:02.262Z,58.44
2023-11-04T22:53:30.304Z,58.68
2023-11-04T22:55:58.025Z,59.35
2023-11-04T22:58:25.488Z,59.51
2023-11-04T23:00:53.036Z,59.27
2023-11-04T23:03:20.888Z,58.96
2023-11-04T23:05:48.539Z,59.26
2023-11-04T23:08:16.643Z,59.39
2023-11-04T23:10:44.300Z,59.72
2023-11-04T23:13:11.760Z,59.71
2023-11-04T23:15:39.224Z,59.47
2023-11-04T23:18:07.612Z,59.65
2023-11-04T23:20:35.264Z,59.89
2023-11-04T23:23:02.695Z,59.88
2023-11-04T23:25:30.455Z,59.91
2023-11-04T23:27:57.993Z,59.78
2023-11-04T23:30:25.489Z,59.91
2023-11-04T23:32:53.199Z,59.78
2023-11-04T23:35:20.706Z,59.93
2023-11-04T23:37:48.506Z,60.26
2023-11-04T23:40:16.693Z,60.38
2023-11-04T23:42:44.173Z,61.05
2023-11-04T23:45:11.649Z,61.06
2023-11-04T23:47:39.417Z,60.90
2023-11-04T23:50:07.991Z,60.75
2023-11-04T23:52:35.428Z,60.90
2023-11-04T23:55:03.569Z,60.89
2023-11-04T23:57:31.244Z,60.84
2023-11-04T23:59:58.629Z,60.72
